Time;durP1;ratioP1;P1;durP2;ratioP2;P2;SDS_P1;SDS_P2;PMS_P1;PMS_P2;Temp;Humidity;BMP_temperature;BMP_pressure;BME280_temperature;BME280_humidity;BME280_pressure;Samples;Min_cycle;Max_cycle;Signal;HPM_P1;HPM_P2
2022/06/04 00:00:57;;;;;;;14.35;12.10;;;;;;;20.41;70.48;95352.09;5075832;28;20265;-71
2022/06/04 00:03:26;;;;;;;16.25;12.20;;;;;;;20.40;70.54;95350.47;5075901;28;20197;-71
2022/06/04 00:05:55;;;;;;;21.30;16.00;;;;;;;20.36;70.42;95355.31;5076766;28;20186;-71
2022/06/04 00:08:22;;;;;;;25.95;16.83;;;;;;;20.29;70.47;95354.56;5075748;28;20193;-72
2022/06/04 00:16:24;;;;;;;29.38;17.95;;;;;;;20.15;70.71;95347.84;5076225;28;20199;-71
2022/06/04 00:18:51;;;;;;;26.50;17.77;;;;;;;20.16;70.96;95349.44;5076141;28;20189;-71
2022/06/04 00:21:18;;;;;;;34.53;20.55;;;;;;;20.14;70.71;95353.84;5075464;28;20193;-71
2022/06/04 00:23:44;;;;;;;33.80;20.60;;;;;;;20.14;71.11;95348.22;5075460;28;20241;-71
2022/06/04 00:26:13;;;;;;;30.73;20.52;;;;;;;20.13;71.17;95341.84;5076108;28;20205;-71
2022/06/04 00:28:41;;;;;;;25.13;19.45;;;;;;;20.15;71.17;95341.41;5075210;28;20220;-71
2022/06/04 00:31:08;;;;;;;25.17;18.00;;;;;;;20.17;71.47;95347.41;5075189;28;20219;-71
2022/06/04 00:33:37;;;;;;;24.40;17.42;;;;;;;20.14;71.29;95345.44;5075096;28;20213;-71
2022/06/04 00:36:04;;;;;;;24.17;17.00;;;;;;;20.08;71.38;95338.66;5076139;28;20185;-71
2022/06/04 00:38:32;;;;;;;21.52;15.98;;;;;;;20.02;71.35;95334.72;5075797;28;20601;-71
2022/06/04 00:41:07;;;;;;;27.05;18.90;;;;;;;19.94;71.20;95334.75;5075734;28;20181;-72
2022/06/04 00:43:58;;;;;;;25.98;19.05;;;;;;;19.87;71.16;95329.19;5075977;28;20185;-72
2022/06/04 00:47:05;;;;;;;26.60;18.85;;;;;;;19.84;71.45;95327.19;5074889;28;20212;-73
2022/06/04 00:49:32;;;;;;;31.42;23.63;;;;;;;19.80;71.34;95328.41;5074942;28;20201;-73
2022/06/04 00:51:59;;;;;;;33.33;26.02;;;;;;;19.78;71.55;95320.41;5075337;28;20231;-73
2022/06/04 00:54:26;;;;;;;41.05;27.33;;;;;;;19.78;71.76;95331.59;5075834;28;20197;-73
2022/06/04 00:56:58;;;;;;;26.40;21.88;;;;;;;19.77;71.66;95321.63;5074965;28;20254;-73
2022/06/04 00:59:34;;;;;;;26.48;20.92;;;;;;;19.80;71.77;95328.41;5075654;28;20518;-73
2022/06/04 01:02:11;;;;;;;21.20;18.63;;;;;;;19.83;71.88;95322.81;5075458;28;20181;-73
2022/06/04 01:04:50;;;;;;;27.02;21.52;;;;;;;19.86;71.97;95315.56;5074811;28;20254;-73
2022/06/04 01:07:26;;;;;;;32.50;25.45;;;;;;;19.80;71.98;95308.81;5074798;28;20250;-73
2022/06/04 01:10:08;;;;;;;29.40;24.23;;;;;;;19.72;71.85;95308.06;5074812;28;20204;-73
2022/06/04 01:12:46;;;;;;;28.65;23.25;;;;;;;19.67;72.20;95306.47;5074758;28;20232;-73
2022/06/04 01:15:24;;;;;;;28.85;22.23;;;;;;;19.66;72.08;95310.47;5074407;28;20277;-73
2022/06/04 01:17:59;;;;;;;25.40;20.15;;;;;;;19.59;72.07;95318.88;5075498;28;20196;-73
2022/06/04 01:20:35;;;;;;;22.40;19.80;;;;;;;19.61;72.49;95326.88;5075203;28;20208;-73
2022/06/04 01:23:21;;;;;;;24.13;18.90;;;;;;;19.61;72.49;95310.88;5075230;28;20236;-74
2022/06/04 01:26:09;;;;;;;23.60;19.88;;;;;;;19.61;72.33;95304.50;5075220;28;20209;-74
2022/06/04 01:28:38;;;;;;;32.05;22.52;;;;;;;19.54;72.05;95291.31;5074766;28;20196;-74
2022/06/04 01:31:07;;;;;;;35.35;25.52;;;;;;;19.52;71.90;95292.91;5074589;28;20578;-74
2022/06/04 01:33:38;;;;;;;38.08;26.35;;;;;;;19.45;71.28;95294.53;5074989;28;20209;-74
2022/06/04 01:36:07;;;;;;;37.17;25.33;;;;;;;19.38;71.65;95293.75;5075467;28;20192;-74
2022/06/04 01:38:36;;;;;;;37.75;25.40;;;;;;;19.34;72.38;95288.19;5074155;28;20266;-74
2022/06/04 01:41:05;;;;;;;34.72;22.25;;;;;;;19.36;72.37;95299.78;5074262;28;20192;-74
2022/06/04 01:43:37;;;;;;;29.27;21.77;;;;;;;19.36;72.49;95291.38;5075096;28;20196;-73
2022/06/04 01:46:10;;;;;;;31.67;22.15;;;;;;;19.31;72.22;95299.38;5075554;28;20177;-71
2022/06/04 01:48:40;;;;;;;35.15;21.25;;;;;;;19.26;72.60;95299.78;5074433;28;20254;-72
2022/06/04 01:51:08;;;;;;;28.48;20.58;;;;;;;19.27;72.62;95307.78;5074832;28;20201;-72
2022/06/04 01:53:37;;;;;;;27.15;19.48;;;;;;;19.29;72.64;95313.78;5073707;28;20278;-72
2022/06/04 01:56:07;;;;;;;27.15;18.42;;;;;;;19.31;72.67;95316.16;5074547;28;20205;-72
2022/06/04 01:58:38;;;;;;;29.23;20.08;;;;;;;19.30;72.81;95323.75;5074148;28;20203;-72
2022/06/04 02:01:08;;;;;;;29.63;21.02;;;;;;;19.29;72.84;95330.53;5074974;28;20185;-72
2022/06/04 02:03:39;;;;;;;29.20;20.20;;;;;;;19.30;73.10;95343.31;5073957;28;20193;-72
2022/06/04 02:06:09;;;;;;;19.73;15.90;;;;;;;19.33;73.46;95345.31;5074253;28;20246;-72
2022/06/04 02:08:39;;;;;;;14.30;12.90;;;;;;;19.36;73.59;95347.31;5074145;28;20204;-72
2022/06/04 02:11:09;;;;;;;12.88;11.57;;;;;;;19.38;73.25;95341.31;5074894;28;20201;-72
2022/06/04 02:13:38;;;;;;;11.73;10.60;;;;;;;19.38;73.38;95339.31;5075091;28;20205;-72
2022/06/04 02:16:09;;;;;;;12.55;11.32;;;;;;;19.41;73.38;95346.88;5073950;28;20551;-71
2022/06/04 02:18:36;;;;;;;11.73;10.63;;;;;;;19.38;72.89;95353.28;5074250;28;20193;-72
2022/06/04 02:21:03;;;;;;;16.17;13.35;;;;;;;19.32;72.68;95360.50;5074015;28;20186;-72
2022/06/04 02:23:30;;;;;;;15.75;13.48;;;;;;;19.27;72.95;95362.91;5073395;28;20240;-72
2022/06/04 02:25:58;;;;;;;14.90;13.45;;;;;;;19.21;72.89;95366.13;5073856;28;20270;-72
2022/06/04 02:28:25;;;;;;;14.98;11.43;;;;;;;19.17;72.87;95361.72;5073834;28;20224;-71
2022/06/04 02:30:59;;;;;;;12.68;11.00;;;;;;;19.07;72.10;95365.34;5073894;28;20193;-71
2022/06/04 02:33:37;;;;;;;12.95;11.63;;;;;;;18.98;72.11;95360.13;5074277;28;20201;-71
2022/06/04 02:36:08;;;;;;;15.77;12.10;;;;;;;18.90;72.14;95362.13;5073472;28;20209;-71
2022/06/04 02:38:39;;;;;;;13.18;11.13;;;;;;;18.90;72.63;95361.34;5074300;28;20209;-71
2022/06/04 02:41:11;;;;;;;13.18;11.77;;;;;;;18.92;72.70;95362.56;5073749;28;20200;-72
2022/06/04 02:43:42;;;;;;;12.38;11.13;;;;;;;18.95;72.92;95358.97;5074273;28;20181;-71
2022/06/04 02:46:16;;;;;;;14.50;11.98;;;;;;;18.92;72.30;95358.97;5074167;28;20189;-71
2022/06/04 02:48:47;;;;;;;12.73;11.32;;;;;;;18.83;72.27;95352.97;5074575;28;20184;-72
2022/06/04 02:51:18;;;;;;;15.52;11.25;;;;;;;18.78;72.33;95354.16;5076526;28;20201;-72
2022/06/04 02:53:45;;;;;;;12.38;10.63;;;;;;;18.75;72.44;95350.16;5077618;28;20282;-72
2022/06/04 02:56:15;;;;;;;12.90;10.50;;;;;;;18.75;72.66;95352.16;5077789;28;20204;-72
2022/06/04 02:58:44;;;;;;;11.50;10.40;;;;;;;18.77;72.42;95352.56;5078327;28;20205;-72
2022/06/04 03:01:12;;;;;;;13.02;10.13;;;;;;;18.71;72.50;95349.38;5077507;28;20201;-73
2022/06/04 03:03:58;;;;;;;12.27;10.80;;;;;;;18.72;72.75;95339.78;5078446;28;20181;-73
2022/06/04 03:06:26;;;;;;;12.98;10.70;;;;;;;18.70;72.88;95339.38;5077126;28;20207;-73
2022/06/04 03:08:54;;;;;;;12.02;10.77;;;;;;;18.68;72.96;95330.56;5077416;28;20197;-73
2022/06/04 03:11:21;;;;;;;12.15;10.85;;;;;;;18.64;72.90;95329.00;5077758;28;20198;-72
2022/06/04 03:13:48;;;;;;;11.45;10.25;;;;;;;18.62;73.24;95336.97;5077450;28;20251;-72
2022/06/04 03:16:17;;;;;;;12.18;10.85;;;;;;;18.62;73.46;95329.38;5076747;28;20553;-72
2022/06/04 03:18:44;;;;;;;12.18;10.90;;;;;;;18.66;73.41;95327.38;5078273;28;20530;-76
2022/06/04 03:21:11;;;;;;;11.32;10.23;;;;;;;18.68;73.13;95330.56;5077852;28;20189;-73
2022/06/04 03:23:38;;;;;;;11.63;10.43;;;;;;;18.68;73.02;95330.56;5077909;28;20237;-74
2022/06/04 03:26:06;;;;;;;9.27;8.38;;;;;;;18.69;72.12;95331.38;5077674;28;20185;-73
2022/06/04 03:28:32;;;;;;;11.02;9.02;;;;;;;18.72;72.03;95336.19;5077570;28;20234;-73
2022/06/04 03:31:00;;;;;;;9.27;7.72;;;;;;;18.78;71.48;95334.59;5077491;28;20196;-73
2022/06/04 03:33:28;;;;;;;11.27;8.23;;;;;;;18.86;69.96;95335.41;5076525;28;20226;-71
2022/06/04 03:35:55;;;;;;;7.80;7.10;;;;;;;18.93;69.53;95327.00;5076499;28;20644;-72
2022/06/04 03:38:22;;;;;;;8.20;7.50;;;;;;;18.97;69.36;95336.19;5077355;28;20197;-72
2022/06/04 03:40:48;;;;;;;8.20;7.47;;;;;;;19.00;69.52;95321.41;5077426;28;20255;-72
2022/06/04 03:43:15;;;;;;;9.38;8.27;;;;;;;19.02;69.86;95327.38;5076014;28;20208;-72
2022/06/04 03:45:42;;;;;;;8.38;7.57;;;;;;;19.03;70.43;95326.22;5077224;28;20185;-72
2022/06/04 03:48:09;;;;;;;10.82;7.97;;;;;;;19.03;70.35;95336.56;5076887;28;20564;-72
2022/06/04 03:50:37;;;;;;;9.05;8.25;;;;;;;19.07;70.83;95332.59;5076710;28;20254;-72
2022/06/04 03:53:04;;;;;;;8.90;8.10;;;;;;;19.09;70.20;95337.75;5077214;28;20201;-72
2022/06/04 03:55:31;;;;;;;8.75;7.95;;;;;;;19.09;70.77;95334.97;5076148;28;20236;-72
2022/06/04 03:57:58;;;;;;;8.90;8.10;;;;;;;19.11;71.05;95335.38;5077027;28;20227;-72
2022/06/04 04:00:27;;;;;;;9.27;8.38;;;;;;;19.12;70.55;95340.56;5076451;28;20189;-72
2022/06/04 04:02:56;;;;;;;10.00;8.75;;;;;;;19.14;71.23;95342.97;5075727;28;20193;-72
2022/06/04 04:05:26;;;;;;;9.27;8.38;;;;;;;19.16;71.45;95346.16;5075871;28;20204;-72
2022/06/04 04:07:55;;;;;;;9.82;8.93;;;;;;;19.18;71.56;95352.94;5076786;28;20185;-72
2022/06/04 04:10:22;;;;;;;9.18;8.20;;;;;;;19.19;71.24;95354.53;5076667;28;20197;-72
2022/06/04 04:12:49;;;;;;;9.82;8.90;;;;;;;19.21;71.85;95356.94;5076327;28;20569;-72
2022/06/04 04:15:16;;;;;;;11.30;10.18;;;;;;;19.22;71.91;95355.72;5076601;28;20246;-72
2022/06/04 04:17:44;;;;;;;10.30;9.30;;;;;;;19.26;72.26;95355.72;5076354;28;20254;-72
2022/06/04 04:20:12;;;;;;;11.82;10.23;;;;;;;19.28;72.13;95356.91;5076608;28;20199;-73
2022/06/04 04:22:39;;;;;;;10.75;9.80;;;;;;;19.31;72.60;95355.31;5075544;28;20233;-73
2022/06/04 04:25:09;;;;;;;11.27;10.02;;;;;;;19.33;72.20;95362.09;5075568;28;20193;-73
2022/06/04 04:27:36;;;;;;;11.57;10.48;;;;;;;19.36;72.41;95366.88;5075466;28;20556;-72
2022/06/04 04:30:04;;;;;;;13.55;12.25;;;;;;;19.42;72.56;95362.47;5076109;28;20182;-73
2022/06/04 04:32:31;;;;;;;13.48;12.18;;;;;;;19.51;72.95;95369.66;5076296;28;20200;-74
2022/06/04 04:34:58;;;;;;;13.50;12.18;;;;;;;19.57;72.89;95374.44;5074999;28;20213;-75
2022/06/04 04:37:25;;;;;;;13.73;11.85;;;;;;;19.64;73.19;95382.03;5076254;28;20570;-75
2022/06/04 04:39:52;;;;;;;13.18;11.48;;;;;;;19.68;72.94;95383.63;5075581;28;20197;-73
2022/06/04 04:42:20;;;;;;;13.00;11.73;;;;;;;19.71;73.18;95379.19;5075540;28;20207;-72
2022/06/04 04:44:47;;;;;;;14.57;12.05;;;;;;;19.73;73.42;95382.41;5076059;28;20262;-72
2022/06/04 04:47:14;;;;;;;13.55;12.32;;;;;;;19.73;73.47;95390.81;5075584;28;20530;-73
2022/06/04 04:49:40;;;;;;;12.50;11.27;;;;;;;19.71;73.32;95396.78;5075948;28;20196;-73
2022/06/04 04:52:08;;;;;;;12.85;11.65;;;;;;;19.73;73.24;95404.78;5075888;28;20258;-73
2022/06/04 04:54:35;;;;;;;12.13;11.02;;;;;;;19.74;73.51;95403.59;5075096;28;20217;-73
2022/06/04 04:57:02;;;;;;;12.52;11.32;;;;;;;19.75;73.20;95407.19;5075053;28;20203;-73
2022/06/04 04:59:30;;;;;;;11.88;10.77;;;;;;;19.77;73.27;95399.19;5074891;28;20576;-73
2022/06/04 05:01:57;;;;;;;12.13;10.90;;;;;;;19.79;73.49;95393.97;5075701;28;20189;-73
2022/06/04 05:04:24;;;;;;;11.98;10.88;;;;;;;19.79;73.39;95386.41;5074459;28;20200;-73
2022/06/04 05:06:50;;;;;;;11.32;10.32;;;;;;;19.83;73.52;95394.78;5075839;28;20196;-72
2022/06/04 05:09:17;;;;;;;11.18;10.05;;;;;;;19.89;73.62;95391.13;5074767;28;20193;-73
2022/06/04 05:11:45;;;;;;;15.18;10.45;;;;;;;19.94;73.30;95393.53;5075544;28;20189;-73
2022/06/04 05:14:12;;;;;;;12.50;11.25;;;;;;;19.97;73.63;95394.69;5074342;28;20588;-73
2022/06/04 05:16:40;;;;;;;12.38;11.10;;;;;;;19.99;73.39;95395.09;5075719;28;20189;-73
2022/06/04 05:19:08;;;;;;;12.07;10.88;;;;;;;20.04;73.78;95393.88;5075553;28;20188;-74
2022/06/04 05:21:41;;;;;;;14.25;12.02;;;;;;;20.07;73.64;95388.25;5074760;28;20593;-74
2022/06/04 05:24:15;;;;;;;12.88;11.77;;;;;;;20.10;73.69;95407.06;5074393;28;20228;-75
2022/06/04 05:26:41;;;;;;;13.13;12.02;;;;;;;20.14;73.65;95396.63;5074582;28;20250;-75
2022/06/04 05:29:08;;;;;;;14.23;12.93;;;;;;;20.18;73.66;95402.22;5075098;28;20189;-73
2022/06/04 05:31:36;;;;;;;14.77;13.25;;;;;;;20.22;73.52;95405.00;5074959;28;20189;-73
2022/06/04 05:34:04;;;;;;;15.07;13.52;;;;;;;20.24;73.46;95397.78;5074933;28;20213;-73
2022/06/04 05:36:31;;;;;;;14.48;12.85;;;;;;;20.28;73.29;95400.56;5075282;28;20258;-73
2022/06/04 05:38:58;;;;;;;14.90;13.50;;;;;;;20.31;72.87;95394.97;5074102;28;20258;-73
2022/06/04 05:41:25;;;;;;;16.70;14.90;;;;;;;20.33;73.05;95400.94;5075085;28;20250;-73
2022/06/04 05:43:53;;;;;;;15.60;14.00;;;;;;;20.35;72.83;95406.94;5074338;28;20192;-73
2022/06/04 05:46:22;;;;;;;16.15;14.57;;;;;;;20.38;72.77;95416.53;5075224;28;20196;-73
2022/06/04 05:48:49;;;;;;;14.57;13.25;;;;;;;20.41;73.18;95424.91;5075228;28;20196;-73
2022/06/04 05:51:19;;;;;;;14.32;12.93;;;;;;;20.43;73.31;95410.50;5075170;28;20181;-73
2022/06/04 05:53:48;;;;;;;14.20;12.98;;;;;;;20.43;73.17;95416.09;5074107;28;20213;-73
2022/06/04 05:56:16;;;;;;;15.35;13.88;;;;;;;20.41;73.17;95415.72;5074504;28;20197;-73
2022/06/04 05:58:43;;;;;;;16.73;13.55;;;;;;;20.43;73.58;95414.09;5074111;28;20247;-73
2022/06/04 06:01:10;;;;;;;14.85;13.35;;;;;;;20.46;73.67;95414.50;5073984;28;20530;-73
2022/06/04 06:03:37;;;;;;;14.73;13.30;;;;;;;20.47;73.61;95414.06;5074119;28;20189;-73
2022/06/04 06:06:04;;;;;;;14.82;13.32;;;;;;;20.47;73.54;95418.88;5074316;28;20262;-73
2022/06/04 06:08:32;;;;;;;14.43;12.93;;;;;;;20.48;73.58;95409.25;5074348;28;20193;-73
2022/06/04 06:10:59;;;;;;;12.68;11.38;;;;;;;20.49;73.50;95411.66;5074088;28;20193;-73
2022/06/04 06:13:26;;;;;;;15.18;13.68;;;;;;;20.54;73.55;95407.66;5074910;28;20209;-73
2022/06/04 06:15:52;;;;;;;14.93;13.48;;;;;;;20.55;74.01;95406.44;5075319;28;20268;-73
2022/06/04 06:18:19;;;;;;;15.98;14.40;;;;;;;20.57;74.43;95409.66;5074942;28;20185;-73
2022/06/04 06:20:46;;;;;;;15.35;13.75;;;;;;;20.59;73.68;95410.06;5074029;28;20247;-72
2022/06/04 06:23:12;;;;;;;15.27;13.35;;;;;;;20.60;73.19;95401.22;5074431;28;20229;-73
2022/06/04 06:25:41;;;;;;;16.67;15.05;;;;;;;20.61;73.07;95399.22;5075830;28;20202;-72
2022/06/04 06:28:07;;;;;;;15.77;14.27;;;;;;;20.65;73.22;95391.56;5077898;28;20192;-72
2022/06/04 06:30:36;;;;;;;14.50;12.98;;;;;;;20.67;73.46;95395.56;5078110;28;20208;-72
2022/06/04 06:33:03;;;;;;;14.68;13.13;;;;;;;20.67;73.86;95395.56;5077894;28;20609;-72
2022/06/04 06:35:30;;;;;;;16.45;14.65;;;;;;;20.67;73.95;95394.78;5077582;28;20212;-72
2022/06/04 06:37:57;;;;;;;14.05;12.85;;;;;;;20.66;73.56;95388.38;5078694;28;20189;-73
2022/06/04 06:40:24;;;;;;;17.00;15.25;;;;;;;20.70;73.28;95387.53;5077605;28;20239;-73
2022/06/04 06:42:52;;;;;;;15.35;13.63;;;;;;;20.70;73.04;95381.94;5078467;28;20262;-73
2022/06/04 06:45:19;;;;;;;14.90;13.48;;;;;;;20.77;72.02;95384.69;5077730;28;20204;-73
2022/06/04 06:47:47;;;;;;;15.00;12.80;;;;;;;20.80;71.60;95372.66;5078497;28;20200;-73
2022/06/04 06:50:16;;;;;;;14.25;12.15;;;;;;;20.88;71.32;95371.41;5078401;28;20192;-73
2022/06/04 06:52:43;;;;;;;13.55;12.43;;;;;;;20.94;71.46;95378.16;5077604;28;20682;-73
2022/06/04 06:55:11;;;;;;;15.40;13.10;;;;;;;20.99;71.32;95369.31;5078197;28;20262;-73
2022/06/04 06:57:38;;;;;;;14.27;12.95;;;;;;;20.99;70.64;95362.88;5077333;28;20193;-73
2022/06/04 07:00:07;;;;;;;14.30;13.00;;;;;;;21.01;70.71;95361.28;5077221;28;20198;-73
2022/06/04 07:02:34;;;;;;;12.35;11.25;;;;;;;21.08;70.65;95350.00;5077149;28;20262;-73
2022/06/04 07:05:00;;;;;;;12.05;10.95;;;;;;;21.22;70.47;95351.09;5077012;28;20192;-72
2022/06/04 07:07:27;;;;;;;15.05;13.52;;;;;;;21.32;70.30;95348.19;5076614;28;20197;-72
2022/06/04 07:09:54;;;;;;;15.15;13.82;;;;;;;21.37;70.21;95350.53;5077076;28;20633;-73
2022/06/04 07:12:21;;;;;;;14.52;13.05;;;;;;;21.43;69.42;95353.72;5077214;28;20288;-72
2022/06/04 07:14:48;;;;;;;15.00;13.55;;;;;;;21.45;68.91;95356.88;5077783;28;20268;-72
2022/06/04 07:17:16;;;;;;;11.73;10.52;;;;;;;21.45;68.88;95344.84;5076896;28;20197;-72
2022/06/04 07:19:43;;;;;;;12.65;11.35;;;;;;;21.54;69.00;95345.19;5077336;28;20200;-72
2022/06/04 07:22:10;;;;;;;12.43;10.55;;;;;;;21.71;68.35;95341.34;5077722;28;20205;-73
2022/06/04 07:24:37;;;;;;;13.48;12.00;;;;;;;21.83;67.98;95338.03;5077665;28;20181;-73
2022/06/04 07:27:05;;;;;;;11.88;10.68;;;;;;;21.88;67.57;95336.75;5077349;28;20274;-73
2022/06/04 07:29:31;;;;;;;11.35;10.18;;;;;;;22.01;67.09;95337.00;5076469;28;20196;-73
2022/06/04 07:31:58;;;;;;;11.27;10.20;;;;;;;22.13;66.42;95330.81;5077367;28;20193;-73
2022/06/04 07:34:26;;;;;;;14.30;13.00;;;;;;;22.17;67.51;95325.97;5076802;28;20220;-73
2022/06/04 07:36:53;;;;;;;11.95;10.48;;;;;;;22.18;66.16;95321.16;5075786;28;20200;-73
2022/06/04 07:39:20;;;;;;;11.35;10.23;;;;;;;22.24;66.13;95319.47;5076465;28;20251;-73
2022/06/04 07:41:51;;;;;;;11.50;10.40;;;;;;;22.34;65.59;95318.53;5076149;28;20200;-73
2022/06/04 07:44:18;;;;;;;11.52;10.45;;;;;;;22.40;65.47;95321.63;5077325;28;20227;-73
2022/06/04 07:46:46;;;;;;;12.45;11.23;;;;;;;22.39;65.59;95314.44;5076342;28;20205;-73
2022/06/04 07:49:13;;;;;;;11.00;10.00;;;;;;;22.37;65.54;95311.25;5076226;28;20587;-73
2022/06/04 07:51:45;;;;;;;10.57;9.55;;;;;;;22.45;65.08;95313.53;5076356;28;20205;-73
2022/06/04 07:54:12;;;;;;;10.73;9.63;;;;;;;22.51;64.95;95319.47;5075840;28;20660;-73
2022/06/04 07:56:40;;;;;;;11.05;9.98;;;;;;;22.54;64.57;95313.00;5076853;28;20533;-73
2022/06/04 07:59:09;;;;;;;11.82;10.63;;;;;;;22.60;64.71;95311.31;5076215;28;20197;-73
2022/06/04 08:01:37;;;;;;;10.95;9.98;;;;;;;22.62;64.55;95308.84;5077124;28;20274;-73
2022/06/04 08:04:04;;;;;;;9.55;8.73;;;;;;;22.66;64.10;95311.59;5076546;28;20197;-73
2022/06/04 08:06:32;;;;;;;10.63;9.57;;;;;;;22.72;63.69;95302.25;5076039;28;20530;-73
2022/06/04 08:09:01;;;;;;;10.70;9.70;;;;;;;22.76;63.46;95305.00;5075565;28;20235;-73
2022/06/04 08:11:35;;;;;;;9.43;8.52;;;;;;;22.83;63.34;95293.66;5076299;28;20247;-73
2022/06/04 08:14:08;;;;;;;10.82;9.73;;;;;;;22.86;63.66;95294.81;5075648;28;20236;-72
2022/06/04 08:16:36;;;;;;;9.60;8.77;;;;;;;22.88;63.06;95283.94;5075775;28;20193;-72
2022/06/04 08:19:02;;;;;;;9.85;8.80;;;;;;;22.91;62.79;95292.31;5075487;28;20242;-72
2022/06/04 08:21:29;;;;;;;10.48;9.23;;;;;;;22.94;63.06;95291.47;5075230;28;20193;-72
2022/06/04 08:23:56;;;;;;;9.45;8.55;;;;;;;22.97;62.47;95289.84;5076046;28;20233;-72
2022/06/04 08:26:24;;;;;;;9.95;9.15;;;;;;;23.01;62.43;95285.72;5076378;28;20182;-72
2022/06/04 08:28:52;;;;;;;9.85;8.93;;;;;;;23.09;61.55;95283.59;5059190;28;20193;-73
2022/06/04 08:31:19;;;;;;;9.23;8.43;;;;;;;23.13;61.13;95278.72;5075509;28;20197;-73
2022/06/04 08:33:46;;;;;;;9.38;8.48;;;;;;;23.15;60.63;95269.84;5076458;28;20250;-73
2022/06/04 08:36:14;;;;;;;9.40;8.48;;;;;;;23.16;60.61;95274.22;5076204;28;20271;-73
2022/06/04 08:38:41;;;;;;;9.25;8.32;;;;;;;23.17;61.24;95273.81;5075553;28;20197;-73
2022/06/04 08:41:17;;;;;;;8.43;7.63;;;;;;;23.16;60.69;95268.59;5074932;28;20598;-73
2022/06/04 08:43:49;;;;;;;8.70;7.85;;;;;;;23.22;60.12;95266.88;5075335;28;20204;-73
2022/06/04 08:46:19;;;;;;;9.02;8.10;;;;;;;23.24;60.09;95267.22;5075308;28;20258;-73
2022/06/04 08:48:47;;;;;;;9.45;8.43;;;;;;;23.25;60.13;95251.97;5075933;28;20196;-73
2022/06/04 08:51:21;;;;;;;10.02;8.88;;;;;;;23.25;60.75;95260.41;5075979;28;20228;-74
2022/06/04 08:53:51;;;;;;;12.02;9.80;;;;;;;23.27;60.53;95258.72;5075448;28;20289;-73
2022/06/04 08:59:16;;;;;;;8.75;7.72;;;;;;;23.32;60.59;95257.44;5074558;28;20197;-73
2022/06/04 09:01:45;;;;;;;8.48;6.65;;;;;;;23.41;57.73;95268.13;5074762;28;20201;-73
2022/06/04 09:04:35;;;;;;;7.25;6.57;;;;;;;23.55;57.78;95270.66;5076216;28;20421;-73
2022/06/04 09:07:08;;;;;;;7.18;6.57;;;;;;;23.62;58.60;95267.72;5075740;28;20264;-73
2022/06/04 09:09:37;;;;;;;7.82;6.80;;;;;;;23.65;57.22;95272.47;5074754;28;20201;-73
2022/06/04 09:12:09;;;;;;;7.38;6.28;;;;;;;23.66;58.16;95264.81;5075717;28;20211;-73
2022/06/04 09:14:40;;;;;;;7.60;6.80;;;;;;;23.66;57.07;95273.25;5075205;28;20205;-73
2022/06/04 09:17:11;;;;;;;6.63;6.03;;;;;;;23.64;55.57;95261.63;5074377;28;20216;-72
2022/06/04 09:19:40;;;;;;;7.63;6.25;;;;;;;23.60;56.85;95261.69;5075488;28;20264;-72
2022/06/04 09:22:15;;;;;;;7.78;6.72;;;;;;;23.61;57.85;95268.94;5074554;28;20213;-72
2022/06/04 09:24:42;;;;;;;7.35;6.75;;;;;;;23.62;58.03;95262.06;5075449;28;20188;-72
2022/06/04 09:27:18;;;;;;;7.15;6.45;;;;;;;23.65;58.11;95266.06;5074560;28;20216;-73
2022/06/04 09:30:01;;;;;;;7.28;6.22;;;;;;;23.67;57.57;95267.22;5075106;28;20197;-73
2022/06/04 09:32:45;;;;;;;7.05;6.45;;;;;;;23.71;57.66;95259.53;5075614;28;20247;-73
2022/06/04 09:35:15;;;;;;;7.38;6.57;;;;;;;23.74;57.08;95269.09;5074989;28;20216;-72
2022/06/04 09:37:45;;;;;;;13.60;6.78;;;;;;;23.76;56.81;95270.25;5075384;28;20270;-72
2022/06/04 09:40:22;;;;;;;7.80;7.10;;;;;;;23.77;57.80;95271.84;5074676;28;20201;-72
2022/06/04 09:42:49;;;;;;;7.18;6.53;;;;;;;23.77;55.95;95273.88;5075354;28;20185;-73
2022/06/04 09:45:21;;;;;;;6.57;5.97;;;;;;;23.75;57.13;95267.91;5074038;28;20263;-72
2022/06/04 09:47:49;;;;;;;6.88;6.18;;;;;;;23.78;57.30;95269.81;5074558;28;20197;-73
2022/06/04 09:50:24;;;;;;;7.13;6.43;;;;;;;23.84;57.26;95267.31;5075253;28;20196;-73
2022/06/04 09:53:04;;;;;;;8.75;6.28;;;;;;;23.89;56.63;95259.13;5074893;28;20185;-74
2022/06/04 09:55:33;;;;;;;7.32;6.60;;;;;;;23.90;56.47;95263.53;5075018;28;20231;-74
2022/06/04 09:58:01;;;;;;;7.80;6.85;;;;;;;23.92;56.20;95263.88;5074508;28;20254;-74
2022/06/04 10:00:31;;;;;;;7.05;6.10;;;;;;;23.92;56.51;95261.06;5077264;28;20197;-74
2022/06/04 10:03:00;;;;;;;7.38;6.32;;;;;;;23.91;55.68;95253.06;5079196;28;20189;-74
2022/06/04 10:05:30;;;;;;;9.68;7.72;;;;;;;23.92;56.66;95252.63;5078286;28;20197;-74
2022/06/04 10:07:57;;;;;;;8.90;6.55;;;;;;;23.92;55.80;95249.81;5061321;28;20201;-74
2022/06/04 10:10:28;;;;;;;8.15;7.07;;;;;;;23.95;55.28;95242.50;5078443;28;20208;-74
2022/06/04 10:15:42;;;;;;;8.63;7.55;;;;;;;24.06;55.00;95242.28;5078602;28;20209;-74
2022/06/04 10:18:31;;;;;;;9.30;7.70;;;;;;;24.07;56.12;95244.63;5078655;28;20250;-74
2022/06/04 10:21:02;;;;;;;8.70;7.10;;;;;;;24.11;55.35;95244.56;5074385;28;20316;-74
2022/06/04 10:23:31;;;;;;;7.85;7.07;;;;;;;24.16;55.51;95241.25;5077585;28;20237;-74
2022/06/04 10:26:13;;;;;;;8.05;7.30;;;;;;;24.19;55.12;95243.19;5078676;28;20597;-75
2022/06/04 10:28:49;;;;;;;9.35;7.53;;;;;;;24.22;56.21;95242.28;5077810;28;20197;-74
2022/06/04 10:31:24;;;;;;;7.45;6.68;;;;;;;24.24;56.63;95235.00;5077590;28;20576;-74
2022/06/04 10:33:55;;;;;;;11.43;7.68;;;;;;;24.33;56.88;95223.13;5078529;28;20197;-74
2022/06/04 10:36:31;;;;;;;8.40;7.60;;;;;;;24.45;57.98;95228.09;5078488;28;20202;-74
2022/06/04 10:39:07;;;;;;;8.13;7.35;;;;;;;24.61;56.54;95229.31;5078131;28;20189;-74
2022/06/04 10:41:48;;;;;;;8.40;7.57;;;;;;;24.72;56.04;95224.22;5077488;28;20200;-74
2022/06/04 10:44:42;;;;;;;8.15;7.35;;;;;;;24.84;55.19;95219.91;5077508;28;20201;-76
2022/06/04 10:47:20;;;;;;;9.55;7.65;;;;;;;25.00;56.75;95217.03;5078516;28;20182;-75
2022/06/04 10:50:07;;;;;;;8.90;8.00;;;;;;;25.20;55.90;95211.28;5078342;28;20215;-75
2022/06/04 10:52:40;;;;;;;9.23;8.32;;;;;;;25.34;54.33;95212.91;5077949;28;20181;-75
2022/06/04 10:55:13;;;;;;;10.07;9.13;;;;;;;25.41;53.07;95207.88;5077864;28;20266;-74
2022/06/04 10:57:47;;;;;;;9.20;8.40;;;;;;;25.43;54.25;95201.78;5077234;28;20209;-75
2022/06/04 11:00:18;;;;;;;9.30;8.50;;;;;;;25.46;54.38;95203.72;5078186;28;20185;-74
2022/06/04 11:02:51;;;;;;;10.23;9.23;;;;;;;25.50;53.85;95195.94;5077248;28;20201;-75
2022/06/04 11:05:27;;;;;;;9.52;8.48;;;;;;;25.59;55.42;95195.28;5077956;28;20185;-75
2022/06/04 11:07:57;;;;;;;9.73;8.75;;;;;;;25.67;54.26;95191.81;5077771;28;20208;-75
2022/06/04 11:10:27;;;;;;;9.75;8.82;;;;;;;25.80;53.67;95191.06;5077051;28;20582;-75
2022/06/04 11:12:58;;;;;;;8.80;8.10;;;;;;;25.85;53.71;95190.50;5076581;28;20201;-76
2022/06/04 11:15:30;;;;;;;9.38;8.48;;;;;;;25.87;53.17;95188.03;5076734;28;20232;-76
2022/06/04 11:18:03;;;;;;;11.80;10.57;;;;;;;25.96;55.22;95181.69;5076886;28;20201;-76
2022/06/04 11:20:32;;;;;;;9.93;8.95;;;;;;;26.02;54.28;95186.34;5077807;28;20332;-76
2022/06/04 11:23:11;;;;;;;13.55;9.75;;;;;;;26.13;53.33;95181.13;5077810;28;20240;-75
2022/06/04 11:25:42;;;;;;;11.23;9.73;;;;;;;26.24;54.28;95180.00;5077588;28;20176;-75
2022/06/04 11:28:11;;;;;;;9.98;8.95;;;;;;;26.33;52.82;95182.97;5077030;28;20201;-75
2022/06/04 11:30:46;;;;;;;11.05;9.80;;;;;;;26.39;52.33;95170.59;5077516;28;20223;-75
2022/06/04 11:33:24;;;;;;;10.75;9.70;;;;;;;26.54;52.52;95175.81;5077188;28;20207;-76
2022/06/04 11:35:55;;;;;;;11.13;9.88;;;;;;;26.58;52.50;95182.16;5077779;28;20278;-75
2022/06/04 11:38:33;;;;;;;11.43;10.32;;;;;;;26.69;53.54;95168.47;5076784;28;20235;-75
2022/06/04 11:41:10;;;;;;;13.65;10.00;;;;;;;26.72;52.78;95175.22;5077287;28;20620;-75
2022/06/04 11:43:56;;;;;;;11.43;10.30;;;;;;;26.58;51.49;95168.00;5076697;28;20200;-75
2022/06/04 11:46:29;;;;;;;12.07;10.75;;;;;;;26.49;53.33;95177.19;5077245;28;20517;-75